createdAt,value
2018-03-17T00:01:19.081Z,5.29
2018-03-17T00:03:48.923Z,5.17
2018-03-17T00:06:18.381Z,5.09
2018-03-17T00:08:47.860Z,5.04
2018-03-17T00:11:17.479Z,5.27
2018-03-17T00:13:47.144Z,5.23
2018-03-17T00:16:16.603Z,5.26
2018-03-17T00:18:46.051Z,5.25
2018-03-17T00:21:15.519Z,5.25
2018-03-17T00:23:45.355Z,5.17
2018-03-17T00:26:14.803Z,5.03
2018-03-17T00:28:44.254Z,5.02
2018-03-17T00:31:14.098Z,4.88
2018-03-17T00:33:43.525Z,4.84
2018-03-17T00:36:12.970Z,4.93
2018-03-17T00:38:42.825Z,5.18
2018-03-17T00:41:12.261Z,5.18
2018-03-17T00:43:41.711Z,4.71
2018-03-17T00:46:12.178Z,4.53
2018-03-17T00:48:41.835Z,4.55
2018-03-17T00:51:11.483Z,4.64
2018-03-17T00:53:40.749Z,4.88
2018-03-17T00:56:10.589Z,4.82
2018-03-17T00:58:39.857Z,4.75
2018-03-17T01:01:09.899Z,4.80
2018-03-17T01:03:39.159Z,4.91
2018-03-17T01:06:08.595Z,4.61
2018-03-17T01:08:38.037Z,4.14
2018-03-17T01:11:07.531Z,3.86
2018-03-17T01:13:36.987Z,3.72
2018-03-17T01:16:06.842Z,3.60
2018-03-17T01:18:36.304Z,3.66
2018-03-17T01:21:06.161Z,3.83
2018-03-17T01:23:35.623Z,3.73
2018-03-17T01:26:05.492Z,3.64
2018-03-17T01:28:35.115Z,3.58
2018-03-17T01:31:04.569Z,3.51
2018-03-17T01:33:34.021Z,3.49
2018-03-17T01:36:03.478Z,3.53
2018-03-17T01:38:32.927Z,3.45
2018-03-17T01:41:02.395Z,3.42
2018-03-17T01:43:31.835Z,3.47
2018-03-17T01:46:01.294Z,3.65
2018-03-17T01:48:30.949Z,3.66
2018-03-17T01:51:00.413Z,3.55
2018-03-17T01:53:29.869Z,3.30
2018-03-17T01:55:59.321Z,3.20
2018-03-17T01:58:28.783Z,3.12
2018-03-17T02:00:58.455Z,3.11
2018-03-17T02:03:27.990Z,3.17
2018-03-17T02:05:57.641Z,3.24
2018-03-17T02:08:27.107Z,3.18
2018-03-17T02:10:56.577Z,3.16
2018-03-17T02:13:26.220Z,3.16
2018-03-17T02:15:55.661Z,3.13
2018-03-17T02:18:25.127Z,3.17
2018-03-17T02:20:54.701Z,3.15
2018-03-17T02:23:24.193Z,3.25
2018-03-17T02:25:53.645Z,3.21
2018-03-17T02:28:23.106Z,3.24
2018-03-17T02:30:52.606Z,3.34
2018-03-17T02:33:22.623Z,3.26
2018-03-17T02:35:52.099Z,3.31
2018-03-17T02:38:21.946Z,3.25
2018-03-17T02:40:51.408Z,3.29
2018-03-17T02:43:20.886Z,3.30
2018-03-17T02:45:50.536Z,3.32
2018-03-17T02:48:20.399Z,3.32
2018-03-17T02:50:49.857Z,3.23
2018-03-17T02:53:19.705Z,3.19
2018-03-17T02:55:49.152Z,3.18
2018-03-17T02:58:18.818Z,3.18
2018-03-17T03:00:48.468Z,3.14
2018-03-17T03:03:17.932Z,3.17
2018-03-17T03:05:47.408Z,3.19
2018-03-17T03:08:17.294Z,3.16
2018-03-17T03:10:46.958Z,3.09
2018-03-17T03:13:16.399Z,3.10
2018-03-17T03:15:46.138Z,3.11
2018-03-17T03:18:15.982Z,3.02
2018-03-17T03:20:45.442Z,2.91
2018-03-17T03:23:14.908Z,2.85
2018-03-17T03:25:44.368Z,2.87
2018-03-17T03:28:14.214Z,2.84
2018-03-17T03:30:43.669Z,2.81
2018-03-17T03:33:13.513Z,3.03
2018-03-17T03:35:43.007Z,3.10
2018-03-17T03:38:12.856Z,3.23
2018-03-17T03:40:42.326Z,3.16
2018-03-17T03:43:12.366Z,3.11
2018-03-17T03:45:41.812Z,3.11
2018-03-17T03:48:11.262Z,3.04
2018-03-17T03:50:40.724Z,3.13
2018-03-17T03:53:10.176Z,3.02
2018-03-17T03:55:39.626Z,2.97
2018-03-17T03:58:09.110Z,2.99
2018-03-17T04:00:38.578Z,3.15
2018-03-17T04:03:08.436Z,3.09
2018-03-17T04:05:37.958Z,3.17
2018-03-17T04:08:07.410Z,3.16
2018-03-17T04:10:36.868Z,3.09
2018-03-17T04:13:06.354Z,3.05
2018-03-17T04:15:35.804Z,3.11
2018-03-17T04:18:05.668Z,3.07
2018-03-17T04:20:34.918Z,3.07
2018-03-17T04:23:04.574Z,3.07
2018-03-17T04:25:34.035Z,3.05
2018-03-17T04:28:03.900Z,3.06
2018-03-17T04:30:33.348Z,3.01
2018-03-17T04:33:03.231Z,3.14
2018-03-17T04:35:32.705Z,3.24
2018-03-17T04:38:02.169Z,3.24
2018-03-17T04:40:31.640Z,3.16
2018-03-17T04:43:01.074Z,3.24
2018-03-17T04:45:30.908Z,3.45
2018-03-17T04:48:00.359Z,3.39
2018-03-17T04:50:29.799Z,3.48
2018-03-17T04:52:59.635Z,3.54
2018-03-17T04:55:29.100Z,3.38
2018-03-17T04:57:58.552Z,3.37
2018-03-17T05:00:28.006Z,3.34
2018-03-17T05:02:57.475Z,3.16
2018-03-17T05:05:27.122Z,3.19
2018-03-17T05:07:57.014Z,3.09
2018-03-17T05:10:26.466Z,3.03
2018-03-17T05:12:56.316Z,3.05
2018-03-17T05:15:25.798Z,3.15
2018-03-17T05:17:55.592Z,3.03
2018-03-17T05:20:25.440Z,2.97
2018-03-17T05:22:54.897Z,2.85
2018-03-17T05:25:24.351Z,2.92
2018-03-17T05:27:53.808Z,2.86
2018-03-17T05:30:23.688Z,2.87
2018-03-17T05:32:53.136Z,2.81
2018-03-17T05:35:22.980Z,2.74
2018-03-17T05:37:52.252Z,2.70
2018-03-17T05:40:22.304Z,2.65
2018-03-17T05:42:51.764Z,2.68
2018-03-17T05:45:21.216Z,2.65
2018-03-17T05:47:50.667Z,2.59
2018-03-17T05:50:20.124Z,2.79
2018-03-17T05:52:49.595Z,2.89
2018-03-17T05:55:19.060Z,2.91
2018-03-17T05:57:48.710Z,3.00
2018-03-17T06:00:18.564Z,2.97
2018-03-17T06:02:48.042Z,2.94
2018-03-17T06:05:17.492Z,3.03
2018-03-17T06:07:46.970Z,3.07
2018-03-17T06:10:16.415Z,3.01
2018-03-17T06:12:45.661Z,3.02
2018-03-17T06:15:15.382Z,3.02
2018-03-17T06:17:44.822Z,3.04
2018-03-17T06:20:14.294Z,3.06
2018-03-17T06:22:43.746Z,3.18
2018-03-17T06:25:13.210Z,3.14
2018-03-17T06:27:42.664Z,3.17
2018-03-17T06:30:12.144Z,3.15
2018-03-17T06:32:41.594Z,3.30
2018-03-17T06:35:11.046Z,3.30
2018-03-17T06:37:40.566Z,3.52
2018-03-17T06:40:10.202Z,3.68
2018-03-17T06:42:40.050Z,3.81
2018-03-17T06:45:09.494Z,4.05
2018-03-17T06:47:38.989Z,3.90
2018-03-17T06:50:08.480Z,4.00
2018-03-17T06:52:37.734Z,3.76
2018-03-17T06:55:07.880Z,3.56
2018-03-17T06:57:37.353Z,3.53
2018-03-17T07:00:06.870Z,3.60
2018-03-17T07:02:36.734Z,3.51
2018-03-17T07:05:06.200Z,3.50
2018-03-17T07:07:35.646Z,3.64
2018-03-17T07:10:04.836Z,3.81
2018-03-17T07:12:34.305Z,4.21
2018-03-17T07:15:03.578Z,4.43
2018-03-17T07:17:33.032Z,4.51
2018-03-17T07:20:02.496Z,4.78
2018-03-17T07:22:32.356Z,4.70
2018-03-17T07:25:01.808Z,4.56
2018-03-17T07:27:31.673Z,4.67
2018-03-17T07:30:01.145Z,4.75
2018-03-17T07:32:31.220Z,4.65
2018-03-17T07:35:01.512Z,4.82
2018-03-17T07:37:30.952Z,4.89
2018-03-17T07:40:00.420Z,5.36
2018-03-17T07:42:29.865Z,5.34
2018-03-17T07:44:59.330Z,5.28
2018-03-17T07:47:28.798Z,5.56
2018-03-17T07:49:58.623Z,5.58
2018-03-17T07:52:28.108Z,5.59
2018-03-17T07:54:57.948Z,5.35
2018-03-17T07:57:27.417Z,5.40
2018-03-17T07:59:56.881Z,5.98
2018-03-17T08:02:26.331Z,5.94
2018-03-17T08:04:56.184Z,5.81
2018-03-17T08:07:25.629Z,5.82
2018-03-17T08:09:55.094Z,5.75
2018-03-17T08:12:24.563Z,5.70
2018-03-17T08:14:54.455Z,5.90
2018-03-17T08:17:23.924Z,5.90
2018-03-17T08:19:53.389Z,5.97
2018-03-17T08:22:23.282Z,5.86
2018-03-17T08:24:52.905Z,5.79
2018-03-17T08:27:22.361Z,5.99
2018-03-17T08:29:51.839Z,5.99
2018-03-17T08:32:21.277Z,5.77
2018-03-17T08:34:50.753Z,5.72
2018-03-17T08:37:20.807Z,5.74
2018-03-17T08:39:50.289Z,5.75
2018-03-17T08:42:19.753Z,5.90
2018-03-17T08:44:49.608Z,5.92
2018-03-17T08:47:19.287Z,5.95
2018-03-17T08:49:48.939Z,5.86
2018-03-17T08:52:18.566Z,6.08
2018-03-17T08:54:48.037Z,5.83
2018-03-17T08:57:17.483Z,5.94
2018-03-17T08:59:46.953Z,5.97
2018-03-17T09:02:16.500Z,5.97
2018-03-17T09:04:46.097Z,5.95
2018-03-17T09:07:15.549Z,5.88
2018-03-17T09:09:45.039Z,5.93
2018-03-17T09:12:14.894Z,5.93
2018-03-17T09:14:44.358Z,5.95
2018-03-17T09:17:14.213Z,5.97
2018-03-17T09:19:43.661Z,5.95
2018-03-17T09:22:12.216Z,6.07
2018-03-17T09:24:41.906Z,6.15
2018-03-17T09:27:11.360Z,6.15
2018-03-17T09:29:41.090Z,6.22
2018-03-17T09:32:10.949Z,6.19
2018-03-17T09:34:40.435Z,6.28
2018-03-17T09:37:09.903Z,6.30
2018-03-17T09:39:39.361Z,6.28
2018-03-17T09:42:08.822Z,6.30
2018-03-17T09:44:38.661Z,6.36
2018-03-17T09:47:08.104Z,6.53
2018-03-17T09:49:37.558Z,6.62
2018-03-17T09:52:07.004Z,6.59
2018-03-17T09:54:36.651Z,6.53
2018-03-17T09:57:06.508Z,6.52
2018-03-17T09:59:37.653Z,6.50
2018-03-17T10:02:07.132Z,6.52
2018-03-17T10:04:36.675Z,6.52
2018-03-17T10:07:06.387Z,6.50
2018-03-17T10:09:35.922Z,6.52
2018-03-17T10:12:05.382Z,6.67
2018-03-17T10:14:34.833Z,6.70
2018-03-17T10:17:04.292Z,6.78
2018-03-17T10:19:33.740Z,6.90
2018-03-17T10:22:03.613Z,6.89
2018-03-17T10:24:33.072Z,6.92
2018-03-17T10:27:02.927Z,6.82
2018-03-17T10:29:32.438Z,6.86
2018-03-17T10:32:02.449Z,6.76
2018-03-17T10:34:32.149Z,6.80
2018-03-17T10:37:01.607Z,6.95
2018-03-17T10:39:31.276Z,6.80
2018-03-17T10:42:00.748Z,6.78
2018-03-17T10:44:30.599Z,6.78
2018-03-17T10:47:00.255Z,6.76
2018-03-17T10:49:30.117Z,6.86
2018-03-17T10:51:59.596Z,6.85
2018-03-17T10:54:29.068Z,6.86
2018-03-17T10:56:58.516Z,6.80
2018-03-17T10:59:27.980Z,6.84
2018-03-17T11:02:03.136Z,6.95
2018-03-17T11:04:32.999Z,6.86
2018-03-17T11:07:02.447Z,6.87
2018-03-17T11:09:32.307Z,6.80
2018-03-17T11:12:01.756Z,6.84
2018-03-17T11:14:31.230Z,6.81
2018-03-17T11:17:00.717Z,6.88
2018-03-17T11:19:30.184Z,6.89
2018-03-17T11:22:00.057Z,6.93
2018-03-17T11:24:30.963Z,6.84
2018-03-17T11:27:00.416Z,6.86
2018-03-17T11:29:29.870Z,6.84
2018-03-17T11:31:59.302Z,6.82
2018-03-17T11:34:28.784Z,6.84
2018-03-17T11:36:58.939Z,6.98
2018-03-17T11:39:28.396Z,6.95
2018-03-17T11:41:57.667Z,6.89
2018-03-17T11:44:27.125Z,6.83
2018-03-17T11:46:56.401Z,6.90
2018-03-17T11:49:25.855Z,6.92
2018-03-17T11:51:55.328Z,6.93
2018-03-17T11:54:24.783Z,6.93
2018-03-17T11:56:54.494Z,7.04
2018-03-17T11:59:24.378Z,6.96
2018-03-17T12:01:53.846Z,6.97
2018-03-17T12:04:23.320Z,7.02
2018-03-17T12:06:52.786Z,7.04
2018-03-17T12:09:22.308Z,7.01
2018-03-17T12:11:51.764Z,6.93
2018-03-17T12:14:21.231Z,6.79
2018-03-17T12:16:50.688Z,6.88
2018-03-17T12:19:20.152Z,6.95
2018-03-17T12:21:49.632Z,6.99
2018-03-17T12:24:19.264Z,7.02
2018-03-17T12:26:49.120Z,7.03
2018-03-17T12:29:18.584Z,6.92
2018-03-17T12:31:48.420Z,6.89
2018-03-17T12:34:17.949Z,6.85
2018-03-17T12:36:47.564Z,6.79
2018-03-17T12:39:17.029Z,6.88
2018-03-17T12:41:46.870Z,6.87
2018-03-17T12:44:16.312Z,6.87
2018-03-17T12:46:45.461Z,6.88
2018-03-17T12:49:14.922Z,6.94
2018-03-17T12:51:44.201Z,6.98
2018-03-17T12:54:13.668Z,7.07
2018-03-17T12:56:42.875Z,7.05
2018-03-17T12:59:12.336Z,7.01
2018-03-17T13:01:41.808Z,6.93
2018-03-17T13:04:11.256Z,6.94
2018-03-17T13:06:41.110Z,6.95
2018-03-17T13:09:10.570Z,7.02
2018-03-17T13:11:40.426Z,6.86
2018-03-17T13:14:10.234Z,6.83
2018-03-17T13:16:39.714Z,6.88
2018-03-17T13:19:26.421Z,6.90
2018-03-17T13:21:56.266Z,6.88
2018-03-17T13:24:25.383Z,6.90
2018-03-17T13:27:11.693Z,6.82
2018-03-17T13:29:41.174Z,6.82
2018-03-17T13:32:27.395Z,6.83
2018-03-17T13:34:56.563Z,6.88
2018-03-17T13:37:37.708Z,6.87
2018-03-17T13:40:19.157Z,6.85
2018-03-17T13:42:48.933Z,6.84
2018-03-17T13:45:18.397Z,6.85
2018-03-17T13:47:48.277Z,6.84
2018-03-17T13:50:17.733Z,6.72
2018-03-17T13:52:47.603Z,6.69
2018-03-17T13:55:17.048Z,6.61
2018-03-17T13:57:46.903Z,6.57
2018-03-17T14:00:16.365Z,6.55
2018-03-17T14:02:46.235Z,6.54
2018-03-17T14:05:15.561Z,6.51
2018-03-17T14:07:45.015Z,6.43
2018-03-17T14:10:14.477Z,6.42
2018-03-17T14:12:44.342Z,6.29
2018-03-17T14:15:13.663Z,6.27
2018-03-17T14:17:43.126Z,6.24
2018-03-17T14:20:12.573Z,6.20
2018-03-17T14:22:42.033Z,6.12
2018-03-17T14:25:11.536Z,6.06
2018-03-17T14:27:40.817Z,5.89
2018-03-17T14:30:10.658Z,5.83
2018-03-17T14:32:40.115Z,5.78
2018-03-17T14:35:09.559Z,5.68
2018-03-17T14:37:39.017Z,5.66
2018-03-17T14:40:08.486Z,5.62
2018-03-17T14:42:37.940Z,5.58
2018-03-17T14:45:07.583Z,5.56
2018-03-17T14:47:37.053Z,5.59
2018-03-17T14:50:06.523Z,5.55
2018-03-17T14:52:36.322Z,5.54
2018-03-17T14:55:05.755Z,5.42
2018-03-17T14:57:35.211Z,5.43
2018-03-17T15:00:04.098Z,5.47
2018-03-17T15:02:34.139Z,5.45
2018-03-17T15:05:03.590Z,5.48
2018-03-17T15:07:33.041Z,5.34
2018-03-17T15:10:02.821Z,5.33
2018-03-17T15:12:32.676Z,5.26
2018-03-17T15:15:01.852Z,5.15
2018-03-17T15:17:31.699Z,5.03
2018-03-17T15:20:01.154Z,4.95
2018-03-17T15:22:30.994Z,4.82
2018-03-17T15:25:00.442Z,4.76
2018-03-17T15:27:29.892Z,4.73
2018-03-17T15:29:59.388Z,4.70
2018-03-17T15:32:29.238Z,4.64
2018-03-17T15:34:58.748Z,4.54
2018-03-17T15:37:28.222Z,4.51
2018-03-17T15:39:57.672Z,4.48
2018-03-17T15:42:26.945Z,4.44
2018-03-17T15:44:56.427Z,4.48
2018-03-17T15:47:26.098Z,4.36
2018-03-17T15:49:55.560Z,4.30
2018-03-17T15:52:25.038Z,4.29
2018-03-17T15:54:54.892Z,4.20
2018-03-17T15:57:24.359Z,4.14
2018-03-17T15:59:54.253Z,4.14
2018-03-17T16:02:23.699Z,4.06
2018-03-17T16:04:53.158Z,3.99
2018-03-17T16:07:22.628Z,3.87
2018-03-17T16:09:52.076Z,3.87
2018-03-17T16:12:21.941Z,3.76
2018-03-17T16:14:51.400Z,3.75
2018-03-17T16:17:21.296Z,3.69
2018-03-17T16:19:50.805Z,3.67
2018-03-17T16:22:20.449Z,3.60
2018-03-17T16:24:50.084Z,3.57
2018-03-17T16:27:19.596Z,3.60
2018-03-17T16:29:49.075Z,3.62
2018-03-17T16:32:18.570Z,3.63
2018-03-17T16:34:47.958Z,3.55
2018-03-17T16:37:17.827Z,3.52
2018-03-17T16:39:47.112Z,3.50
2018-03-17T16:42:16.600Z,3.46
2018-03-17T16:44:46.046Z,3.42
2018-03-17T16:47:15.344Z,3.43
2018-03-17T16:49:44.618Z,3.41
2018-03-17T16:52:14.087Z,3.35
2018-03-17T16:54:43.742Z,3.34
2018-03-17T16:57:13.200Z,3.36
2018-03-17T16:59:43.054Z,3.32
2018-03-17T17:02:12.530Z,3.37
2018-03-17T17:04:42.193Z,3.27
2018-03-17T17:07:11.681Z,3.30
2018-03-17T17:09:41.154Z,3.23
2018-03-17T17:12:11.010Z,3.20
2018-03-17T17:14:40.482Z,3.11
2018-03-17T17:17:09.979Z,3.07
2018-03-17T17:19:40.025Z,3.02
2018-03-17T17:22:09.489Z,2.97
2018-03-17T17:24:39.343Z,2.99
2018-03-17T17:27:08.824Z,2.97
2018-03-17T17:29:38.854Z,2.91
2018-03-17T17:32:08.324Z,2.94
2018-03-17T17:34:38.165Z,2.89
2018-03-17T17:37:07.623Z,2.90
2018-03-17T17:39:36.904Z,2.77
2018-03-17T17:42:06.356Z,2.84
2018-03-17T17:44:40.979Z,2.74
2018-03-17T17:47:12.275Z,2.66
2018-03-17T17:49:52.501Z,2.66
2018-03-17T17:52:22.745Z,2.64
2018-03-17T17:54:57.674Z,2.70
2018-03-17T17:57:34.061Z,2.68
2018-03-17T18:00:03.815Z,2.65
2018-03-17T18:02:33.677Z,2.65
2018-03-17T18:05:03.163Z,2.67
2018-03-17T18:07:33.184Z,2.63
2018-03-17T18:10:02.645Z,2.52
2018-03-17T18:12:32.116Z,2.42
2018-03-17T18:15:01.595Z,2.40
2018-03-17T18:17:31.057Z,2.34
2018-03-17T18:20:00.504Z,2.32
2018-03-17T18:22:29.987Z,2.30
2018-03-17T18:24:59.848Z,2.24
2018-03-17T18:27:29.306Z,2.28
2018-03-17T18:29:58.767Z,2.26
2018-03-17T18:32:28.233Z,2.21
2018-03-17T18:34:57.689Z,2.11
2018-03-17T18:37:27.136Z,2.10
2018-03-17T18:39:56.599Z,2.08
2018-03-17T18:42:26.084Z,2.01
2018-03-17T18:44:55.523Z,1.98
2018-03-17T18:47:25.380Z,1.84
2018-03-17T18:49:54.866Z,1.80
2018-03-17T18:52:24.333Z,1.70
2018-03-17T18:54:53.778Z,1.73
2018-03-17T18:57:23.253Z,1.78
2018-03-17T18:59:52.708Z,1.77
2018-03-17T19:02:22.153Z,1.78
2018-03-17T19:04:51.618Z,1.69
2018-03-17T19:07:21.080Z,1.58
2018-03-17T19:09:50.937Z,1.53
2018-03-17T19:12:20.421Z,1.53
2018-03-17T19:14:49.882Z,1.48
2018-03-17T19:17:19.332Z,1.46
2018-03-17T19:19:48.829Z,1.44
2018-03-17T19:22:18.486Z,1.44
2018-03-17T19:24:47.940Z,1.46
2018-03-17T19:27:17.397Z,1.51
2018-03-17T19:29:46.868Z,1.51
2018-03-17T19:32:16.324Z,1.54
2018-03-17T19:34:46.047Z,1.46
2018-03-17T19:37:15.901Z,1.42
2018-03-17T19:39:45.720Z,1.38
2018-03-17T19:42:15.184Z,1.41
2018-03-17T19:44:45.045Z,1.38
2018-03-17T19:47:14.502Z,1.38
2018-03-17T19:49:44.367Z,1.33
2018-03-17T19:52:13.801Z,1.27
2018-03-17T19:54:43.265Z,1.28
2018-03-17T19:57:12.549Z,1.32
2018-03-17T19:59:42.004Z,1.21
2018-03-17T20:02:11.454Z,1.17
2018-03-17T20:04:40.905Z,1.18
2018-03-17T20:07:10.360Z,1.13
2018-03-17T20:09:39.810Z,1.10
2018-03-17T20:12:09.299Z,1.08
2018-03-17T20:14:38.781Z,1.04
2018-03-17T20:17:08.265Z,0.96
2018-03-17T20:19:37.533Z,0.90
2018-03-17T20:22:06.974Z,0.86
2018-03-17T20:24:36.833Z,0.81
2018-03-17T20:27:06.067Z,0.79
2018-03-17T20:29:35.930Z,0.82
2018-03-17T20:32:05.058Z,0.75
2018-03-17T20:34:34.545Z,0.74
2018-03-17T20:37:03.982Z,0.73
2018-03-17T20:39:33.439Z,0.73
2018-03-17T20:42:02.920Z,0.77
2018-03-17T20:44:32.818Z,0.78
2018-03-17T20:47:02.434Z,0.83
2018-03-17T20:49:32.312Z,0.87
2018-03-17T20:52:01.952Z,0.85
2018-03-17T20:54:31.821Z,0.83
2018-03-17T20:57:01.291Z,0.72
2018-03-17T20:59:30.754Z,0.71
2018-03-17T21:02:00.198Z,0.80
2018-03-17T21:04:29.639Z,0.74
2018-03-17T21:06:59.097Z,0.64
2018-03-17T21:09:28.944Z,0.61
2018-03-17T21:11:58.409Z,0.61
2018-03-17T21:14:28.251Z,0.70
2018-03-17T21:16:57.721Z,0.61
2018-03-17T21:19:27.585Z,0.65
2018-03-17T21:21:57.044Z,0.61
2018-03-17T21:24:26.902Z,0.68
2018-03-17T21:26:58.806Z,0.66
2018-03-17T21:29:28.405Z,0.69
2018-03-17T21:31:57.854Z,0.66
2018-03-17T21:34:27.539Z,0.57
2018-03-17T21:36:57.383Z,0.50
2018-03-17T21:39:26.921Z,0.53
2018-03-17T21:42:02.390Z,0.51
2018-03-17T21:44:35.739Z,0.58
2018-03-17T21:47:13.154Z,0.55
2018-03-17T21:49:52.158Z,0.50
2018-03-17T21:52:27.595Z,0.50
2018-03-17T21:55:09.457Z,0.48
2018-03-17T21:57:48.065Z,0.43
2018-03-17T22:00:27.086Z,0.40
2018-03-17T22:03:04.544Z,0.39
2018-03-17T22:05:42.029Z,0.39
2018-03-17T22:08:19.002Z,0.38
2018-03-17T22:10:48.701Z,0.41
2018-03-17T22:13:18.150Z,0.37
2018-03-17T22:15:47.599Z,0.33
2018-03-17T22:18:17.045Z,0.34
2018-03-17T22:20:46.505Z,0.33
2018-03-17T22:23:15.971Z,0.34
2018-03-17T22:25:45.426Z,0.29
2018-03-17T22:28:14.888Z,0.29
2018-03-17T22:30:44.362Z,0.28
2018-03-17T22:33:13.818Z,0.30
2018-03-17T22:35:43.697Z,0.28
2018-03-17T22:38:13.151Z,0.20
2018-03-17T22:40:42.609Z,0.24
2018-03-17T22:43:12.064Z,0.17
2018-03-17T22:45:41.517Z,0.16
2018-03-17T22:48:10.980Z,0.10
2018-03-17T22:50:40.446Z,0.08
2018-03-17T22:53:10.769Z,0.11
2018-03-17T22:55:40.253Z,-0.01
2018-03-17T22:58:09.731Z,-0.01
2018-03-17T23:00:39.197Z,-0.01
2018-03-17T23:03:08.835Z,-0.03
2018-03-17T23:05:38.283Z,0.03
2018-03-17T23:08:07.749Z,-0.05
2018-03-17T23:10:37.202Z,-0.18
2018-03-17T23:13:06.343Z,-0.16
2018-03-17T23:15:35.595Z,-0.17
2018-03-17T23:18:05.057Z,-0.24
2018-03-17T23:20:34.691Z,-0.26
2018-03-17T23:23:04.127Z,-0.29
2018-03-17T23:25:33.977Z,-0.31
2018-03-17T23:28:03.415Z,-0.37
2018-03-17T23:30:32.687Z,-0.37
2018-03-17T23:33:02.147Z,-0.41
2018-03-17T23:35:31.787Z,-0.44
2018-03-17T23:38:01.303Z,-0.46
2018-03-17T23:40:30.596Z,-0.45
2018-03-17T23:42:59.891Z,-0.50
2018-03-17T23:45:29.173Z,-0.50
2018-03-17T23:47:58.877Z,-0.51
2018-03-17T23:50:28.165Z,-0.48
2018-03-17T23:52:57.452Z,-0.50
2018-03-17T23:55:26.779Z,-0.47
2018-03-17T23:57:56.399Z,-0.52
